sensor_id;sensor_type;location;lat;lon;timestamp;P1;durP1;ratioP1;P2;durP2;ratioP2
60370;SDS011;48550;40.588;49.684;2023-05-07T00:00:01;40.08;;;20.58;;
60370;SDS011;48550;40.588;49.684;2023-05-07T00:02:26;37.45;;;19.88;;
60370;SDS011;48550;40.588;49.684;2023-05-07T00:04:52;37.00;;;18.33;;
60370;SDS011;48550;40.588;49.684;2023-05-07T00:07:18;38.83;;;19.20;;
60370;SDS011;48550;40.588;49.684;2023-05-07T00:09:44;33.63;;;16.83;;
60370;SDS011;48550;40.588;49.684;2023-05-07T00:12:09;36.95;;;17.02;;
60370;SDS011;48550;40.588;49.684;2023-05-07T00:14:35;39.55;;;16.50;;
60370;SDS011;48550;40.588;49.684;2023-05-07T00:17:01;31.60;;;17.02;;
60370;SDS011;48550;40.588;49.684;2023-05-07T00:19:27;35.67;;;15.98;;
60370;SDS011;48550;40.588;49.684;2023-05-07T00:21:53;30.20;;;15.65;;
60370;SDS011;48550;40.588;49.684;2023-05-07T00:24:19;30.58;;;16.10;;
60370;SDS011;48550;40.588;49.684;2023-05-07T00:26:45;30.25;;;14.93;;
60370;SDS011;48550;40.588;49.684;2023-05-07T00:29:10;25.40;;;14.07;;
60370;SDS011;48550;40.588;49.684;2023-05-07T00:31:36;30.42;;;14.32;;
60370;SDS011;48550;40.588;49.684;2023-05-07T00:34:02;25.38;;;13.77;;
60370;SDS011;48550;40.588;49.684;2023-05-07T00:36:28;25.40;;;13.55;;
60370;SDS011;48550;40.588;49.684;2023-05-07T00:38:54;27.45;;;14.45;;
60370;SDS011;48550;40.588;49.684;2023-05-07T00:41:22;33.95;;;14.45;;
60370;SDS011;48550;40.588;49.684;2023-05-07T00:43:48;30.48;;;14.45;;
60370;SDS011;48550;40.588;49.684;2023-05-07T00:46:13;28.73;;;13.82;;
60370;SDS011;48550;40.588;49.684;2023-05-07T00:48:40;24.73;;;12.48;;
60370;SDS011;48550;40.588;49.684;2023-05-07T00:51:06;26.30;;;12.88;;
60370;SDS011;48550;40.588;49.684;2023-05-07T00:53:32;22.77;;;12.02;;
60370;SDS011;48550;40.588;49.684;2023-05-07T00:55:59;20.27;;;11.98;;
60370;SDS011;48550;40.588;49.684;2023-05-07T00:58:25;29.23;;;12.55;;
60370;SDS011;48550;40.588;49.684;2023-05-07T01:00:51;22.73;;;11.98;;
60370;SDS011;48550;40.588;49.684;2023-05-07T01:03:17;27.20;;;11.30;;
60370;SDS011;48550;40.588;49.684;2023-05-07T01:05:43;23.40;;;11.30;;
60370;SDS011;48550;40.588;49.684;2023-05-07T01:08:11;21.65;;;10.85;;
60370;SDS011;48550;40.588;49.684;2023-05-07T01:10:38;19.20;;;10.65;;
60370;SDS011;48550;40.588;49.684;2023-05-07T01:13:08;20.27;;;10.82;;
60370;SDS011;48550;40.588;49.684;2023-05-07T01:15:35;26.63;;;10.88;;
60370;SDS011;48550;40.588;49.684;2023-05-07T01:18:01;21.15;;;10.70;;
60370;SDS011;48550;40.588;49.684;2023-05-07T01:20:28;23.35;;;10.18;;
60370;SDS011;48550;40.588;49.684;2023-05-07T01:22:53;21.38;;;10.82;;
60370;SDS011;48550;40.588;49.684;2023-05-07T01:25:20;18.70;;;10.02;;
60370;SDS011;48550;40.588;49.684;2023-05-07T01:27:46;21.95;;;9.93;;
60370;SDS011;48550;40.588;49.684;2023-05-07T01:30:12;22.00;;;9.95;;
60370;SDS011;48550;40.588;49.684;2023-05-07T01:32:43;21.52;;;9.45;;
60370;SDS011;48550;40.588;49.684;2023-05-07T01:35:15;20.33;;;9.88;;
60370;SDS011;48550;40.588;49.684;2023-05-07T01:37:45;18.65;;;9.10;;
60370;SDS011;48550;40.588;49.684;2023-05-07T01:40:12;24.23;;;9.27;;
60370;SDS011;48550;40.588;49.684;2023-05-07T01:42:38;27.70;;;9.20;;
60370;SDS011;48550;40.588;49.684;2023-05-07T01:45:05;20.70;;;9.05;;
60370;SDS011;48550;40.588;49.684;2023-05-07T01:47:31;16.25;;;8.57;;
60370;SDS011;48550;40.588;49.684;2023-05-07T01:49:58;19.13;;;8.75;;
60370;SDS011;48550;40.588;49.684;2023-05-07T01:52:24;20.38;;;8.93;;
60370;SDS011;48550;40.588;49.684;2023-05-07T01:54:50;18.60;;;9.05;;
60370;SDS011;48550;40.588;49.684;2023-05-07T01:57:16;19.92;;;8.98;;
60370;SDS011;48550;40.588;49.684;2023-05-07T01:59:41;19.58;;;8.57;;
60370;SDS011;48550;40.588;49.684;2023-05-07T02:02:07;20.38;;;9.15;;
60370;SDS011;48550;40.588;49.684;2023-05-07T02:04:33;21.67;;;9.00;;
60370;SDS011;48550;40.588;49.684;2023-05-07T02:06:58;20.52;;;9.25;;
60370;SDS011;48550;40.588;49.684;2023-05-07T02:09:24;23.45;;;9.10;;
60370;SDS011;48550;40.588;49.684;2023-05-07T02:11:50;17.63;;;9.27;;
60370;SDS011;48550;40.588;49.684;2023-05-07T02:14:16;24.27;;;8.82;;
60370;SDS011;48550;40.588;49.684;2023-05-07T02:16:41;23.65;;;8.95;;
60370;SDS011;48550;40.588;49.684;2023-05-07T02:19:07;16.00;;;8.57;;
60370;SDS011;48550;40.588;49.684;2023-05-07T02:21:33;18.58;;;8.18;;
60370;SDS011;48550;40.588;49.684;2023-05-07T02:23:59;13.70;;;7.68;;
60370;SDS011;48550;40.588;49.684;2023-05-07T02:26:24;16.25;;;7.82;;
60370;SDS011;48550;40.588;49.684;2023-05-07T02:28:51;17.50;;;7.40;;
60370;SDS011;48550;40.588;49.684;2023-05-07T02:31:17;15.13;;;8.02;;
60370;SDS011;48550;40.588;49.684;2023-05-07T02:33:42;14.70;;;6.90;;
60370;SDS011;48550;40.588;49.684;2023-05-07T02:36:08;13.43;;;7.00;;
60370;SDS011;48550;40.588;49.684;2023-05-07T02:38:35;12.57;;;7.20;;
60370;SDS011;48550;40.588;49.684;2023-05-07T02:41:01;18.52;;;7.47;;
60370;SDS011;48550;40.588;49.684;2023-05-07T02:43:27;17.02;;;7.63;;
60370;SDS011;48550;40.588;49.684;2023-05-07T02:46:03;17.83;;;7.63;;
60370;SDS011;48550;40.588;49.684;2023-05-07T02:48:29;13.20;;;7.13;;
60370;SDS011;48550;40.588;49.684;2023-05-07T02:50:55;17.92;;;6.95;;
60370;SDS011;48550;40.588;49.684;2023-05-07T02:53:21;13.45;;;6.72;;
60370;SDS011;48550;40.588;49.684;2023-05-07T02:55:47;14.00;;;6.30;;
60370;SDS011;48550;40.588;49.684;2023-05-07T02:58:12;10.88;;;6.20;;
60370;SDS011;48550;40.588;49.684;2023-05-07T03:00:38;14.35;;;6.38;;
60370;SDS011;48550;40.588;49.684;2023-05-07T03:03:04;12.43;;;6.10;;
60370;SDS011;48550;40.588;49.684;2023-05-07T03:05:30;14.60;;;6.00;;
60370;SDS011;48550;40.588;49.684;2023-05-07T03:07:55;12.50;;;5.28;;
60370;SDS011;48550;40.588;49.684;2023-05-07T03:10:21;11.38;;;5.50;;
60370;SDS011;48550;40.588;49.684;2023-05-07T03:12:47;11.02;;;5.72;;
60370;SDS011;48550;40.588;49.684;2023-05-07T03:15:12;17.55;;;6.72;;
60370;SDS011;48550;40.588;49.684;2023-05-07T03:17:38;10.57;;;6.10;;
60370;SDS011;48550;40.588;49.684;2023-05-07T03:20:04;15.05;;;6.15;;
60370;SDS011;48550;40.588;49.684;2023-05-07T03:22:32;13.23;;;5.93;;
60370;SDS011;48550;40.588;49.684;2023-05-07T03:24:57;8.88;;;5.60;;
60370;SDS011;48550;40.588;49.684;2023-05-07T03:27:23;18.30;;;5.90;;
60370;SDS011;48550;40.588;49.684;2023-05-07T03:29:52;11.80;;;5.60;;
60370;SDS011;48550;40.588;49.684;2023-05-07T03:32:18;10.55;;;5.32;;
60370;SDS011;48550;40.588;49.684;2023-05-07T03:34:43;18.52;;;5.88;;
60370;SDS011;48550;40.588;49.684;2023-05-07T03:37:09;12.05;;;5.25;;
60370;SDS011;48550;40.588;49.684;2023-05-07T03:39:35;16.08;;;5.00;;
60370;SDS011;48550;40.588;49.684;2023-05-07T03:42:01;10.43;;;5.05;;
60370;SDS011;48550;40.588;49.684;2023-05-07T03:44:28;16.65;;;5.22;;
60370;SDS011;48550;40.588;49.684;2023-05-07T03:46:54;14.05;;;5.72;;
60370;SDS011;48550;40.588;49.684;2023-05-07T03:49:20;12.65;;;5.43;;
60370;SDS011;48550;40.588;49.684;2023-05-07T03:51:46;12.07;;;4.68;;
60370;SDS011;48550;40.588;49.684;2023-05-07T03:54:12;12.85;;;4.90;;
60370;SDS011;48550;40.588;49.684;2023-05-07T03:56:38;11.05;;;4.22;;
60370;SDS011;48550;40.588;49.684;2023-05-07T03:59:03;13.70;;;4.45;;
60370;SDS011;48550;40.588;49.684;2023-05-07T04:01:29;7.95;;;3.58;;
60370;SDS011;48550;40.588;49.684;2023-05-07T04:03:55;14.88;;;4.13;;
60370;SDS011;48550;40.588;49.684;2023-05-07T04:06:24;15.45;;;4.63;;
60370;SDS011;48550;40.588;49.684;2023-05-07T04:08:50;9.82;;;4.03;;
60370;SDS011;48550;40.588;49.684;2023-05-07T04:11:16;8.00;;;3.58;;
60370;SDS011;48550;40.588;49.684;2023-05-07T04:13:41;10.23;;;3.72;;
60370;SDS011;48550;40.588;49.684;2023-05-07T04:16:07;7.20;;;3.40;;
60370;SDS011;48550;40.588;49.684;2023-05-07T04:18:33;18.15;;;4.45;;
60370;SDS011;48550;40.588;49.684;2023-05-07T04:20:59;13.38;;;3.78;;
60370;SDS011;48550;40.588;49.684;2023-05-07T04:23:25;15.82;;;4.05;;
60370;SDS011;48550;40.588;49.684;2023-05-07T04:25:50;9.40;;;3.55;;
60370;SDS011;48550;40.588;49.684;2023-05-07T04:28:16;12.98;;;3.75;;
60370;SDS011;48550;40.588;49.684;2023-05-07T04:30:42;12.65;;;3.80;;
60370;SDS011;48550;40.588;49.684;2023-05-07T04:33:07;14.20;;;3.67;;
60370;SDS011;48550;40.588;49.684;2023-05-07T04:35:33;9.45;;;4.35;;
60370;SDS011;48550;40.588;49.684;2023-05-07T04:38:00;11.85;;;3.85;;
60370;SDS011;48550;40.588;49.684;2023-05-07T04:40:26;13.38;;;3.80;;
60370;SDS011;48550;40.588;49.684;2023-05-07T04:42:52;9.45;;;3.65;;
60370;SDS011;48550;40.588;49.684;2023-05-07T04:45:18;11.15;;;4.50;;
60370;SDS011;48550;40.588;49.684;2023-05-07T04:47:44;10.75;;;3.30;;
60370;SDS011;48550;40.588;49.684;2023-05-07T04:50:10;13.65;;;4.05;;
60370;SDS011;48550;40.588;49.684;2023-05-07T04:52:36;14.95;;;3.83;;
60370;SDS011;48550;40.588;49.684;2023-05-07T04:55:01;12.68;;;3.72;;
60370;SDS011;48550;40.588;49.684;2023-05-07T04:57:27;9.98;;;3.70;;
60370;SDS011;48550;40.588;49.684;2023-05-07T04:59:53;12.13;;;3.72;;
60370;SDS011;48550;40.588;49.684;2023-05-07T05:02:19;10.25;;;4.00;;
60370;SDS011;48550;40.588;49.684;2023-05-07T05:04:45;10.15;;;3.20;;
60370;SDS011;48550;40.588;49.684;2023-05-07T05:07:11;9.45;;;4.00;;
60370;SDS011;48550;40.588;49.684;2023-05-07T05:09:36;12.98;;;5.40;;
60370;SDS011;48550;40.588;49.684;2023-05-07T05:12:02;14.25;;;3.65;;
60370;SDS011;48550;40.588;49.684;2023-05-07T05:14:29;13.23;;;3.65;;
60370;SDS011;48550;40.588;49.684;2023-05-07T05:16:54;13.30;;;3.90;;
60370;SDS011;48550;40.588;49.684;2023-05-07T05:19:20;15.02;;;4.18;;
60370;SDS011;48550;40.588;49.684;2023-05-07T05:21:46;8.43;;;4.35;;
60370;SDS011;48550;40.588;49.684;2023-05-07T05:24:12;14.18;;;4.45;;
60370;SDS011;48550;40.588;49.684;2023-05-07T05:26:37;17.13;;;4.45;;
60370;SDS011;48550;40.588;49.684;2023-05-07T05:29:03;11.00;;;4.97;;
60370;SDS011;48550;40.588;49.684;2023-05-07T05:31:29;8.68;;;4.70;;
60370;SDS011;48550;40.588;49.684;2023-05-07T05:33:55;17.38;;;5.28;;
60370;SDS011;48550;40.588;49.684;2023-05-07T05:36:20;11.38;;;4.78;;
60370;SDS011;48550;40.588;49.684;2023-05-07T05:38:46;10.73;;;3.70;;
60370;SDS011;48550;40.588;49.684;2023-05-07T05:41:12;17.05;;;5.40;;
60370;SDS011;48550;40.588;49.684;2023-05-07T05:43:37;10.55;;;3.72;;
60370;SDS011;48550;40.588;49.684;2023-05-07T05:46:03;10.77;;;4.00;;
60370;SDS011;48550;40.588;49.684;2023-05-07T05:48:33;14.18;;;4.43;;
60370;SDS011;48550;40.588;49.684;2023-05-07T05:50:59;17.33;;;4.57;;
60370;SDS011;48550;40.588;49.684;2023-05-07T05:53:25;12.07;;;4.50;;
60370;SDS011;48550;40.588;49.684;2023-05-07T05:55:51;11.15;;;3.85;;
60370;SDS011;48550;40.588;49.684;2023-05-07T05:58:16;13.25;;;4.90;;
60370;SDS011;48550;40.588;49.684;2023-05-07T06:00:42;11.52;;;4.45;;
60370;SDS011;48550;40.588;49.684;2023-05-07T06:03:09;11.43;;;3.95;;
60370;SDS011;48550;40.588;49.684;2023-05-07T06:05:35;16.80;;;4.70;;
60370;SDS011;48550;40.588;49.684;2023-05-07T06:08:01;11.98;;;4.68;;
60370;SDS011;48550;40.588;49.684;2023-05-07T06:10:27;10.77;;;3.67;;
60370;SDS011;48550;40.588;49.684;2023-05-07T06:12:53;14.90;;;4.10;;
60370;SDS011;48550;40.588;49.684;2023-05-07T06:15:18;8.98;;;3.72;;
60370;SDS011;48550;40.588;49.684;2023-05-07T06:17:44;9.57;;;3.97;;
60370;SDS011;48550;40.588;49.684;2023-05-07T06:20:10;12.52;;;4.88;;
60370;SDS011;48550;40.588;49.684;2023-05-07T06:22:36;12.35;;;4.00;;
60370;SDS011;48550;40.588;49.684;2023-05-07T06:25:02;15.20;;;4.13;;
60370;SDS011;48550;40.588;49.684;2023-05-07T06:27:27;9.13;;;3.85;;
60370;SDS011;48550;40.588;49.684;2023-05-07T06:29:53;11.30;;;4.63;;
60370;SDS011;48550;40.588;49.684;2023-05-07T06:32:19;13.27;;;4.25;;
60370;SDS011;48550;40.588;49.684;2023-05-07T06:34:45;11.20;;;4.93;;
60370;SDS011;48550;40.588;49.684;2023-05-07T06:37:11;10.45;;;4.20;;
60370;SDS011;48550;40.588;49.684;2023-05-07T06:39:36;8.30;;;4.40;;
60370;SDS011;48550;40.588;49.684;2023-05-07T06:42:02;12.82;;;4.30;;
60370;SDS011;48550;40.588;49.684;2023-05-07T06:44:29;11.82;;;4.25;;
60370;SDS011;48550;40.588;49.684;2023-05-07T06:46:56;15.25;;;4.75;;
60370;SDS011;48550;40.588;49.684;2023-05-07T06:49:22;13.30;;;4.20;;
60370;SDS011;48550;40.588;49.684;2023-05-07T06:51:47;11.00;;;3.85;;
60370;SDS011;48550;40.588;49.684;2023-05-07T06:54:13;10.30;;;4.00;;
60370;SDS011;48550;40.588;49.684;2023-05-07T06:56:39;13.85;;;4.63;;
60370;SDS011;48550;40.588;49.684;2023-05-07T06:59:06;10.45;;;4.78;;
60370;SDS011;48550;40.588;49.684;2023-05-07T07:01:31;12.10;;;4.45;;
60370;SDS011;48550;40.588;49.684;2023-05-07T07:03:57;10.05;;;3.88;;
60370;SDS011;48550;40.588;49.684;2023-05-07T07:06:23;11.73;;;3.85;;
60370;SDS011;48550;40.588;49.684;2023-05-07T07:08:48;12.40;;;4.00;;
60370;SDS011;48550;40.588;49.684;2023-05-07T07:11:14;12.30;;;4.15;;
60370;SDS011;48550;40.588;49.684;2023-05-07T07:13:40;13.98;;;4.20;;
60370;SDS011;48550;40.588;49.684;2023-05-07T07:16:07;12.15;;;4.80;;
60370;SDS011;48550;40.588;49.684;2023-05-07T07:18:33;16.70;;;4.22;;
60370;SDS011;48550;40.588;49.684;2023-05-07T07:20:59;13.57;;;4.18;;
60370;SDS011;48550;40.588;49.684;2023-05-07T07:23:25;12.32;;;4.43;;
60370;SDS011;48550;40.588;49.684;2023-05-07T07:25:50;9.88;;;3.78;;
60370;SDS011;48550;40.588;49.684;2023-05-07T07:28:17;17.45;;;5.38;;
60370;SDS011;48550;40.588;49.684;2023-05-07T07:30:42;11.18;;;4.22;;
60370;SDS011;48550;40.588;49.684;2023-05-07T07:33:08;11.27;;;3.90;;
60370;SDS011;48550;40.588;49.684;2023-05-07T07:35:34;14.45;;;3.88;;
60370;SDS011;48550;40.588;49.684;2023-05-07T07:38:00;15.65;;;4.15;;
60370;SDS011;48550;40.588;49.684;2023-05-07T07:40:26;14.38;;;3.80;;
60370;SDS011;48550;40.588;49.684;2023-05-07T07:42:52;11.82;;;4.00;;
60370;SDS011;48550;40.588;49.684;2023-05-07T07:45:18;9.27;;;4.15;;
60370;SDS011;48550;40.588;49.684;2023-05-07T07:47:44;12.90;;;5.22;;
60370;SDS011;48550;40.588;49.684;2023-05-07T07:50:10;10.25;;;4.03;;
60370;SDS011;48550;40.588;49.684;2023-05-07T07:52:36;13.02;;;3.75;;
60370;SDS011;48550;40.588;49.684;2023-05-07T07:55:02;14.52;;;4.00;;
60370;SDS011;48550;40.588;49.684;2023-05-07T07:57:29;9.48;;;3.65;;
60370;SDS011;48550;40.588;49.684;2023-05-07T07:59:55;14.45;;;4.57;;
60370;SDS011;48550;40.588;49.684;2023-05-07T08:02:21;16.63;;;4.63;;
60370;SDS011;48550;40.588;49.684;2023-05-07T08:04:47;10.82;;;4.63;;
60370;SDS011;48550;40.588;49.684;2023-05-07T08:07:12;8.90;;;4.07;;
60370;SDS011;48550;40.588;49.684;2023-05-07T08:09:38;9.80;;;4.03;;
60370;SDS011;48550;40.588;49.684;2023-05-07T08:12:05;11.20;;;4.13;;
60370;SDS011;48550;40.588;49.684;2023-05-07T08:14:32;13.73;;;3.38;;
60370;SDS011;48550;40.588;49.684;2023-05-07T08:16:58;12.02;;;3.80;;
60370;SDS011;48550;40.588;49.684;2023-05-07T08:19:24;9.20;;;3.53;;
60370;SDS011;48550;40.588;49.684;2023-05-07T08:21:49;10.00;;;3.88;;
60370;SDS011;48550;40.588;49.684;2023-05-07T08:24:15;12.23;;;3.60;;
60370;SDS011;48550;40.588;49.684;2023-05-07T08:26:42;10.88;;;4.25;;
60370;SDS011;48550;40.588;49.684;2023-05-07T08:29:09;9.57;;;4.03;;
60370;SDS011;48550;40.588;49.684;2023-05-07T08:31:35;7.65;;;3.80;;
60370;SDS011;48550;40.588;49.684;2023-05-07T08:34:00;10.18;;;3.47;;
60370;SDS011;48550;40.588;49.684;2023-05-07T08:36:26;9.38;;;4.10;;
60370;SDS011;48550;40.588;49.684;2023-05-07T08:38:52;11.52;;;3.88;;
60370;SDS011;48550;40.588;49.684;2023-05-07T08:41:18;10.52;;;4.47;;
60370;SDS011;48550;40.588;49.684;2023-05-07T08:43:47;10.02;;;4.15;;
60370;SDS011;48550;40.588;49.684;2023-05-07T08:46:18;11.57;;;3.90;;
60370;SDS011;48550;40.588;49.684;2023-05-07T08:48:50;8.68;;;4.22;;
60370;SDS011;48550;40.588;49.684;2023-05-07T08:51:20;14.13;;;3.90;;
60370;SDS011;48550;40.588;49.684;2023-05-07T08:53:47;13.20;;;4.10;;
60370;SDS011;48550;40.588;49.684;2023-05-07T08:56:14;17.60;;;4.30;;
60370;SDS011;48550;40.588;49.684;2023-05-07T08:58:41;13.82;;;4.20;;
60370;SDS011;48550;40.588;49.684;2023-05-07T09:01:13;11.02;;;4.43;;
60370;SDS011;48550;40.588;49.684;2023-05-07T09:03:40;14.57;;;4.90;;
60370;SDS011;48550;40.588;49.684;2023-05-07T09:06:09;15.02;;;4.97;;
60370;SDS011;48550;40.588;49.684;2023-05-07T09:08:35;11.57;;;4.22;;
60370;SDS011;48550;40.588;49.684;2023-05-07T09:11:01;11.75;;;4.53;;
60370;SDS011;48550;40.588;49.684;2023-05-07T09:13:27;7.78;;;4.20;;
60370;SDS011;48550;40.588;49.684;2023-05-07T09:15:54;7.90;;;4.18;;
60370;SDS011;48550;40.588;49.684;2023-05-07T09:18:20;18.40;;;4.80;;
60370;SDS011;48550;40.588;49.684;2023-05-07T09:20:46;12.32;;;4.90;;
60370;SDS011;48550;40.588;49.684;2023-05-07T09:23:11;12.57;;;5.40;;
60370;SDS011;48550;40.588;49.684;2023-05-07T09:25:37;9.50;;;4.45;;
60370;SDS011;48550;40.588;49.684;2023-05-07T09:28:03;9.52;;;3.97;;
60370;SDS011;48550;40.588;49.684;2023-05-07T09:30:32;14.25;;;4.68;;
60370;SDS011;48550;40.588;49.684;2023-05-07T09:32:59;11.23;;;4.05;;
60370;SDS011;48550;40.588;49.684;2023-05-07T09:35:26;12.65;;;3.75;;
60370;SDS011;48550;40.588;49.684;2023-05-07T09:37:56;15.70;;;4.03;;
60370;SDS011;48550;40.588;49.684;2023-05-07T09:40:23;10.95;;;3.53;;
60370;SDS011;48550;40.588;49.684;2023-05-07T09:42:54;7.13;;;3.30;;
60370;SDS011;48550;40.588;49.684;2023-05-07T09:45:22;17.20;;;3.92;;
60370;SDS011;48550;40.588;49.684;2023-05-07T09:47:56;10.93;;;3.50;;
60370;SDS011;48550;40.588;49.684;2023-05-07T09:50:27;10.88;;;4.97;;
60370;SDS011;48550;40.588;49.684;2023-05-07T09:52:55;14.05;;;3.53;;
60370;SDS011;48550;40.588;49.684;2023-05-07T09:55:22;11.30;;;3.30;;
60370;SDS011;48550;40.588;49.684;2023-05-07T09:57:52;10.60;;;3.08;;
60370;SDS011;48550;40.588;49.684;2023-05-07T10:00:21;11.25;;;3.05;;
60370;SDS011;48550;40.588;49.684;2023-05-07T10:02:48;11.00;;;3.30;;
60370;SDS011;48550;40.588;49.684;2023-05-07T10:05:20;8.90;;;2.80;;
60370;SDS011;48550;40.588;49.684;2023-05-07T10:07:47;7.65;;;3.05;;
60370;SDS011;48550;40.588;49.684;2023-05-07T10:10:14;7.38;;;2.95;;
60370;SDS011;48550;40.588;49.684;2023-05-07T10:12:41;10.73;;;3.47;;
60370;SDS011;48550;40.588;49.684;2023-05-07T10:15:07;6.35;;;2.80;;
60370;SDS011;48550;40.588;49.684;2023-05-07T10:17:37;11.32;;;3.20;;
60370;SDS011;48550;40.588;49.684;2023-05-07T10:20:05;12.23;;;3.20;;
60370;SDS011;48550;40.588;49.684;2023-05-07T10:22:34;6.13;;;2.90;;
60370;SDS011;48550;40.588;49.684;2023-05-07T10:25:05;13.45;;;3.45;;
60370;SDS011;48550;40.588;49.684;2023-05-07T10:27:34;10.88;;;3.55;;
60370;SDS011;48550;40.588;49.684;2023-05-07T10:32:53;13.65;;;4.53;;
60370;SDS011;48550;40.588;49.684;2023-05-07T10:35:24;12.00;;;5.03;;
60370;SDS011;48550;40.588;49.684;2023-05-07T10:37:52;11.55;;;3.78;;
60370;SDS011;48550;40.588;49.684;2023-05-07T10:40:20;9.95;;;3.30;;
60370;SDS011;48550;40.588;49.684;2023-05-07T10:43:00;12.23;;;3.63;;
60370;SDS011;48550;40.588;49.684;2023-05-07T10:45:27;7.80;;;3.13;;
60370;SDS011;48550;40.588;49.684;2023-05-07T10:48:07;11.00;;;3.33;;
60370;SDS011;48550;40.588;49.684;2023-05-07T10:50:34;9.18;;;3.03;;
60370;SDS011;48550;40.588;49.684;2023-05-07T10:55:48;11.70;;;3.10;;
60370;SDS011;48550;40.588;49.684;2023-05-07T11:00:47;11.32;;;3.53;;
60370;SDS011;48550;40.588;49.684;2023-05-07T11:03:14;9.48;;;2.75;;
60370;SDS011;48550;40.588;49.684;2023-05-07T11:05:40;12.57;;;2.45;;
60370;SDS011;48550;40.588;49.684;2023-05-07T11:08:07;8.68;;;2.42;;
60370;SDS011;48550;40.588;49.684;2023-05-07T11:10:50;8.70;;;2.80;;
60370;SDS011;48550;40.588;49.684;2023-05-07T11:16:19;10.02;;;2.33;;
60370;SDS011;48550;40.588;49.684;2023-05-07T11:18:55;4.97;;;2.30;;
60370;SDS011;48550;40.588;49.684;2023-05-07T11:21:34;10.68;;;2.20;;
60370;SDS011;48550;40.588;49.684;2023-05-07T11:24:01;7.00;;;2.13;;
60370;SDS011;48550;40.588;49.684;2023-05-07T11:26:41;7.57;;;2.10;;
60370;SDS011;48550;40.588;49.684;2023-05-07T11:29:15;14.30;;;2.72;;
60370;SDS011;48550;40.588;49.684;2023-05-07T11:31:49;6.88;;;2.20;;
60370;SDS011;48550;40.588;49.684;2023-05-07T11:34:19;9.82;;;3.03;;
60370;SDS011;48550;40.588;49.684;2023-05-07T11:36:49;10.40;;;3.50;;
60370;SDS011;48550;40.588;49.684;2023-05-07T11:39:25;13.48;;;3.20;;
60370;SDS011;48550;40.588;49.684;2023-05-07T11:41:52;8.75;;;3.08;;
60370;SDS011;48550;40.588;49.684;2023-05-07T11:44:17;12.25;;;3.63;;
60370;SDS011;48550;40.588;49.684;2023-05-07T11:46:43;9.05;;;3.15;;
60370;SDS011;48550;40.588;49.684;2023-05-07T11:49:10;8.52;;;3.35;;
60370;SDS011;48550;40.588;49.684;2023-05-07T11:51:36;10.18;;;2.70;;
60370;SDS011;48550;40.588;49.684;2023-05-07T11:54:04;9.20;;;3.00;;
60370;SDS011;48550;40.588;49.684;2023-05-07T11:56:34;9.10;;;2.60;;
60370;SDS011;48550;40.588;49.684;2023-05-07T11:59:00;8.52;;;2.85;;
60370;SDS011;48550;40.588;49.684;2023-05-07T12:01:26;11.02;;;2.78;;
60370;SDS011;48550;40.588;49.684;2023-05-07T12:03:52;10.68;;;2.92;;
60370;SDS011;48550;40.588;49.684;2023-05-07T12:06:18;9.32;;;2.60;;
60370;SDS011;48550;40.588;49.684;2023-05-07T12:08:45;7.55;;;2.85;;
60370;SDS011;48550;40.588;49.684;2023-05-07T12:11:29;7.72;;;2.65;;
60370;SDS011;48550;40.588;49.684;2023-05-07T12:13:55;10.95;;;2.70;;
60370;SDS011;48550;40.588;49.684;2023-05-07T12:16:21;10.77;;;2.70;;
60370;SDS011;48550;40.588;49.684;2023-05-07T12:18:47;10.50;;;3.13;;
60370;SDS011;48550;40.588;49.684;2023-05-07T12:21:13;8.90;;;2.83;;
60370;SDS011;48550;40.588;49.684;2023-05-07T12:23:39;7.75;;;2.88;;
60370;SDS011;48550;40.588;49.684;2023-05-07T12:26:05;12.55;;;2.95;;
60370;SDS011;48550;40.588;49.684;2023-05-07T12:28:31;7.60;;;2.70;;
60370;SDS011;48550;40.588;49.684;2023-05-07T12:31:00;13.45;;;2.92;;
60370;SDS011;48550;40.588;49.684;2023-05-07T12:33:27;6.65;;;2.40;;
60370;SDS011;48550;40.588;49.684;2023-05-07T12:35:54;8.50;;;3.17;;
60370;SDS011;48550;40.588;49.684;2023-05-07T12:38:21;13.05;;;3.20;;
60370;SDS011;48550;40.588;49.684;2023-05-07T12:40:50;10.70;;;2.63;;
60370;SDS011;48550;40.588;49.684;2023-05-07T12:45:46;15.10;;;2.90;;
60370;SDS011;48550;40.588;49.684;2023-05-07T12:48:14;9.65;;;3.15;;
60370;SDS011;48550;40.588;49.684;2023-05-07T12:50:39;6.88;;;2.90;;
60370;SDS011;48550;40.588;49.684;2023-05-07T12:53:06;10.32;;;3.33;;
60370;SDS011;48550;40.588;49.684;2023-05-07T12:58:19;7.63;;;2.53;;
60370;SDS011;48550;40.588;49.684;2023-05-07T13:00:47;10.90;;;2.70;;
60370;SDS011;48550;40.588;49.684;2023-05-07T13:03:24;12.65;;;2.85;;
60370;SDS011;48550;40.588;49.684;2023-05-07T13:05:59;9.77;;;3.42;;
60370;SDS011;48550;40.588;49.684;2023-05-07T13:08:26;14.10;;;3.20;;
60370;SDS011;48550;40.588;49.684;2023-05-07T13:11:00;10.85;;;3.80;;
60370;SDS011;48550;40.588;49.684;2023-05-07T13:13:33;13.18;;;3.47;;
60370;SDS011;48550;40.588;49.684;2023-05-07T13:16:03;11.07;;;3.33;;
60370;SDS011;48550;40.588;49.684;2023-05-07T13:18:31;11.48;;;3.35;;
60370;SDS011;48550;40.588;49.684;2023-05-07T13:20:58;8.80;;;2.95;;
60370;SDS011;48550;40.588;49.684;2023-05-07T13:23:25;10.82;;;3.17;;
60370;SDS011;48550;40.588;49.684;2023-05-07T13:25:51;11.30;;;3.53;;
60370;SDS011;48550;40.588;49.684;2023-05-07T13:28:20;8.88;;;2.88;;
60370;SDS011;48550;40.588;49.684;2023-05-07T13:30:46;14.52;;;3.40;;
60370;SDS011;48550;40.588;49.684;2023-05-07T13:33:12;10.23;;;3.20;;
60370;SDS011;48550;40.588;49.684;2023-05-07T13:35:38;11.73;;;3.53;;
60370;SDS011;48550;40.588;49.684;2023-05-07T13:38:05;8.90;;;3.00;;
60370;SDS011;48550;40.588;49.684;2023-05-07T13:40:30;11.27;;;4.00;;
60370;SDS011;48550;40.588;49.684;2023-05-07T13:42:57;8.25;;;3.20;;
60370;SDS011;48550;40.588;49.684;2023-05-07T13:45:23;7.35;;;3.00;;
60370;SDS011;48550;40.588;49.684;2023-05-07T13:47:51;13.93;;;3.30;;
60370;SDS011;48550;40.588;49.684;2023-05-07T13:50:16;11.00;;;4.30;;
60370;SDS011;48550;40.588;49.684;2023-05-07T13:52:43;11.93;;;5.05;;
60370;SDS011;48550;40.588;49.684;2023-05-07T13:55:19;13.10;;;4.72;;
60370;SDS011;48550;40.588;49.684;2023-05-07T13:57:46;9.20;;;4.50;;
60370;SDS011;48550;40.588;49.684;2023-05-07T14:00:12;10.57;;;3.10;;
60370;SDS011;48550;40.588;49.684;2023-05-07T14:02:39;12.50;;;4.10;;
60370;SDS011;48550;40.588;49.684;2023-05-07T14:05:05;14.50;;;5.50;;
60370;SDS011;48550;40.588;49.684;2023-05-07T14:07:31;15.95;;;4.82;;
60370;SDS011;48550;40.588;49.684;2023-05-07T14:09:57;15.52;;;3.75;;
60370;SDS011;48550;40.588;49.684;2023-05-07T14:12:23;12.10;;;3.30;;
60370;SDS011;48550;40.588;49.684;2023-05-07T14:14:49;10.25;;;4.05;;
60370;SDS011;48550;40.588;49.684;2023-05-07T14:17:18;10.57;;;4.80;;
60370;SDS011;48550;40.588;49.684;2023-05-07T14:19:45;13.57;;;4.80;;
60370;SDS011;48550;40.588;49.684;2023-05-07T14:22:12;17.33;;;3.78;;
60370;SDS011;48550;40.588;49.684;2023-05-07T14:24:39;14.88;;;3.30;;
60370;SDS011;48550;40.588;49.684;2023-05-07T14:27:05;10.48;;;3.25;;
60370;SDS011;48550;40.588;49.684;2023-05-07T14:29:31;11.30;;;3.88;;
60370;SDS011;48550;40.588;49.684;2023-05-07T14:31:57;15.05;;;4.55;;
60370;SDS011;48550;40.588;49.684;2023-05-07T14:34:23;16.48;;;4.60;;
60370;SDS011;48550;40.588;49.684;2023-05-07T14:36:48;15.35;;;5.75;;